createdAt,value
2022-12-16T00:01:27.335Z,92556.00
2022-12-16T00:03:56.652Z,92572.00
2022-12-16T00:06:29.588Z,92556.00
2022-12-16T00:08:56.864Z,92558.00
2022-12-16T00:11:23.903Z,92564.00
2022-12-16T00:13:50.914Z,92549.00
2022-12-16T00:16:20.863Z,92552.00
2022-12-16T00:18:48.555Z,92543.00
2022-12-16T00:21:18.586Z,92546.00
2022-12-16T00:23:45.914Z,92544.00
2022-12-16T00:26:15.615Z,92541.00
2022-12-16T00:28:43.882Z,92536.00
2022-12-16T00:31:10.979Z,92530.00
2022-12-16T00:33:38.045Z,92533.00
2022-12-16T00:36:05.588Z,92542.00
2022-12-16T00:38:32.476Z,92546.00
2022-12-16T00:41:02.471Z,92539.00
2022-12-16T00:43:32.405Z,92531.00
2022-12-16T00:46:02.113Z,92535.00
2022-12-16T00:48:29.092Z,92553.00
2022-12-16T00:50:58.907Z,92552.00
2022-12-16T00:53:28.407Z,92552.00
2022-12-16T00:56:07.693Z,92557.00
2022-12-16T00:58:38.142Z,92561.00
2022-12-16T01:01:05.755Z,92573.00
2022-12-16T01:03:36.034Z,92577.00
2022-12-16T01:06:16.220Z,92580.00
2022-12-16T01:08:48.432Z,92589.00
2022-12-16T01:11:18.725Z,92582.00
2022-12-16T01:13:52.283Z,92591.00
2022-12-16T01:16:19.590Z,92603.00
2022-12-16T01:18:46.630Z,92602.00
2022-12-16T01:21:15.452Z,92607.00
2022-12-16T01:23:45.588Z,92607.00
2022-12-16T01:26:17.425Z,92614.00
2022-12-16T01:28:47.933Z,92612.00
2022-12-16T01:31:19.732Z,92615.00
2022-12-16T01:33:49.272Z,92612.00
2022-12-16T01:36:20.714Z,92623.00
2022-12-16T01:38:47.764Z,92611.00
2022-12-16T01:41:18.421Z,92622.00
2022-12-16T01:43:46.568Z,92619.00
2022-12-16T01:46:13.508Z,92608.00
2022-12-16T01:49:03.680Z,92610.00
2022-12-16T01:51:52.019Z,92617.00
2022-12-16T01:54:29.495Z,92617.00
2022-12-16T01:57:08.297Z,92621.00
2022-12-16T01:59:38.769Z,92614.00
2022-12-16T02:02:06.238Z,92623.00
2022-12-16T02:04:33.401Z,92620.00
2022-12-16T02:07:01.411Z,92618.00
2022-12-16T02:09:28.366Z,92618.00
2022-12-16T02:12:13.294Z,92627.00
2022-12-16T02:15:01.843Z,92619.00
2022-12-16T02:17:58.498Z,92611.00
2022-12-16T02:21:02.432Z,92621.00
2022-12-16T02:24:26.595Z,92627.00
2022-12-16T02:27:41.148Z,92624.00
2022-12-16T02:30:39.268Z,92632.00
2022-12-16T02:33:43.781Z,92640.00
2022-12-16T02:36:48.323Z,92639.00
2022-12-16T02:39:35.133Z,92645.00
2022-12-16T02:42:16.538Z,92655.00
2022-12-16T02:44:52.429Z,92672.00
2022-12-16T02:47:19.271Z,92681.00
2022-12-16T02:49:51.529Z,92681.00
2022-12-16T02:52:36.845Z,92677.00
2022-12-16T02:55:09.028Z,92672.00
2022-12-16T02:58:09.350Z,92673.00
2022-12-16T03:01:07.426Z,92681.00
2022-12-16T03:04:09.204Z,92680.00
2022-12-16T03:06:39.053Z,92676.00
2022-12-16T03:09:11.023Z,92669.00
2022-12-16T03:11:40.557Z,92664.00
2022-12-16T03:14:15.830Z,92667.00
2022-12-16T03:16:44.843Z,92662.00
2022-12-16T03:19:12.861Z,92664.00
2022-12-16T03:22:13.655Z,92674.00
2022-12-16T03:24:43.502Z,92687.00
2022-12-16T03:27:40.213Z,92679.00
2022-12-16T03:30:20.335Z,92686.00
2022-12-16T03:32:57.073Z,92671.00
2022-12-16T03:35:56.839Z,92673.00
2022-12-16T03:38:27.977Z,92689.00
2022-12-16T03:40:56.988Z,92707.00
2022-12-16T03:43:27.066Z,92708.00
2022-12-16T03:46:00.531Z,92715.00
2022-12-16T03:48:31.029Z,92719.00
2022-12-16T03:50:57.940Z,92725.00
2022-12-16T03:53:27.027Z,92728.00
2022-12-16T03:55:54.838Z,92733.00
2022-12-16T03:58:23.889Z,92735.00
2022-12-16T04:00:53.264Z,92731.00
2022-12-16T04:03:22.847Z,92753.00
2022-12-16T04:05:51.866Z,92749.00
2022-12-16T04:08:18.861Z,92756.00
2022-12-16T04:11:04.055Z,92756.00
2022-12-16T04:13:49.518Z,92750.00
2022-12-16T04:16:35.542Z,92755.00
2022-12-16T04:19:21.552Z,92751.00
2022-12-16T04:22:09.279Z,92751.00
2022-12-16T04:24:41.086Z,92750.00
2022-12-16T04:27:26.026Z,92765.00
2022-12-16T04:30:14.633Z,92759.00
2022-12-16T04:33:00.175Z,92767.00
2022-12-16T04:35:48.194Z,92757.00
2022-12-16T04:38:33.687Z,92757.00
2022-12-16T04:41:19.212Z,92774.00
2022-12-16T04:44:09.601Z,92761.00
2022-12-16T04:46:55.610Z,92763.00
2022-12-16T04:49:40.781Z,92775.00
2022-12-16T04:52:26.685Z,92790.00
2022-12-16T04:55:12.223Z,92798.00
2022-12-16T04:57:57.940Z,92804.00
2022-12-16T05:00:43.931Z,92817.00
2022-12-16T05:03:29.761Z,92809.00
2022-12-16T05:06:15.184Z,92825.00
2022-12-16T05:09:00.552Z,92814.00
2022-12-16T05:11:46.037Z,92826.00
2022-12-16T05:14:31.500Z,92832.00
2022-12-16T05:17:16.833Z,92840.00
2022-12-16T05:20:02.383Z,92835.00
2022-12-16T05:22:47.782Z,92832.00
2022-12-16T05:25:33.561Z,92839.00
2022-12-16T05:28:24.248Z,92847.00
2022-12-16T05:31:10.098Z,92849.00
2022-12-16T05:33:57.775Z,92857.00
2022-12-16T05:36:43.262Z,92845.00
2022-12-16T05:39:31.382Z,92852.00
2022-12-16T05:42:16.727Z,92849.00
2022-12-16T05:45:01.931Z,92856.00
2022-12-16T05:47:47.281Z,92848.00
2022-12-16T05:50:32.783Z,92871.00
2022-12-16T05:53:18.273Z,92866.00
2022-12-16T05:56:03.565Z,92863.00
2022-12-16T05:58:48.963Z,92873.00
2022-12-16T06:01:34.256Z,92875.00
2022-12-16T06:04:19.679Z,92874.00
2022-12-16T06:07:05.569Z,92886.00
2022-12-16T06:09:56.796Z,92894.00
2022-12-16T06:12:43.064Z,92902.00
2022-12-16T06:15:29.266Z,92900.00
2022-12-16T06:18:15.043Z,92899.00
2022-12-16T06:21:00.883Z,92907.00
2022-12-16T06:23:46.420Z,92910.00
2022-12-16T06:26:32.417Z,92902.00
2022-12-16T06:29:20.249Z,92912.00
2022-12-16T06:32:05.619Z,92916.00
2022-12-16T06:34:50.991Z,92918.00
2022-12-16T06:37:38.716Z,92929.00
2022-12-16T06:40:28.088Z,92925.00
2022-12-16T06:43:13.557Z,92929.00
2022-12-16T06:45:59.208Z,92938.00
2022-12-16T06:48:44.514Z,92943.00
2022-12-16T06:51:30.153Z,92950.00
2022-12-16T06:54:18.440Z,92953.00
2022-12-16T06:57:03.915Z,92952.00
2022-12-16T06:59:49.290Z,92962.00
2022-12-16T07:02:34.991Z,92964.00
2022-12-16T07:05:20.067Z,92978.00
2022-12-16T07:08:09.752Z,92975.00
2022-12-16T07:11:02.348Z,92974.00
2022-12-16T07:13:54.685Z,92985.00
2022-12-16T07:16:43.003Z,92991.00
2022-12-16T07:19:30.787Z,92997.00
2022-12-16T07:22:18.748Z,93003.00
2022-12-16T07:25:04.274Z,93014.00
2022-12-16T07:27:49.742Z,93019.00
2022-12-16T07:30:37.618Z,93017.00
2022-12-16T07:33:22.861Z,93035.00
2022-12-16T07:36:10.780Z,93026.00
2022-12-16T07:38:56.241Z,93033.00
2022-12-16T07:41:44.327Z,93035.00
2022-12-16T07:44:29.754Z,93036.00
2022-12-16T07:47:17.197Z,93040.00
2022-12-16T07:50:02.998Z,93044.00
2022-12-16T07:52:50.927Z,93046.00
2022-12-16T07:55:36.087Z,93049.00
2022-12-16T07:58:21.303Z,93057.00
2022-12-16T08:01:09.679Z,93067.00
2022-12-16T08:03:55.216Z,93075.00
2022-12-16T08:06:41.480Z,93082.00
2022-12-16T08:09:27.030Z,93091.00
2022-12-16T08:12:12.458Z,93088.00
2022-12-16T08:14:57.963Z,93085.00
2022-12-16T08:17:43.304Z,93090.00
2022-12-16T08:20:30.767Z,93096.00
2022-12-16T08:23:18.770Z,93096.00
2022-12-16T08:26:04.239Z,93104.00
2022-12-16T08:28:52.535Z,93109.00
2022-12-16T08:31:38.043Z,93106.00
2022-12-16T08:34:25.787Z,93114.00
2022-12-16T08:37:15.838Z,93111.00
2022-12-16T08:43:11.126Z,93118.00
2022-12-16T08:45:59.509Z,93119.00
2022-12-16T08:48:44.766Z,93123.00
2022-12-16T08:51:30.834Z,93124.00
2022-12-16T08:54:21.054Z,93127.00
2022-12-16T08:57:11.315Z,93123.00
2022-12-16T08:59:56.714Z,93137.00
2022-12-16T09:02:42.698Z,93129.00
2022-12-16T09:05:30.241Z,93138.00
2022-12-16T09:08:20.844Z,93137.00
2022-12-16T09:11:11.224Z,93137.00
2022-12-16T09:13:59.178Z,93161.00
2022-12-16T09:16:44.761Z,93163.00
2022-12-16T09:19:30.455Z,93169.00
2022-12-16T09:22:15.929Z,93176.00
2022-12-16T09:25:04.072Z,93172.00
2022-12-16T09:27:52.066Z,93179.00
2022-12-16T09:30:38.084Z,93190.00
2022-12-16T09:33:25.863Z,93191.00
2022-12-16T09:36:11.274Z,93195.00
2022-12-16T09:38:56.739Z,93188.00
2022-12-16T09:41:45.257Z,93191.00
2022-12-16T09:45:01.710Z,93186.00
2022-12-16T09:48:34.149Z,93186.00
2022-12-16T09:51:24.554Z,93187.00
2022-12-16T09:54:15.754Z,93190.00
2022-12-16T09:57:03.500Z,93193.00
2022-12-16T10:00:02.390Z,93191.00
2022-12-16T10:02:47.923Z,93201.00
2022-12-16T10:05:38.462Z,93201.00
2022-12-16T10:08:28.324Z,93207.00
2022-12-16T10:11:29.636Z,93213.00
2022-12-16T10:14:22.503Z,93212.00
2022-12-16T10:17:21.690Z,93205.00
2022-12-16T10:20:28.453Z,93215.00
2022-12-16T10:23:32.316Z,93203.00
2022-12-16T10:26:31.992Z,93229.00
2022-12-16T10:29:39.310Z,93235.00
2022-12-16T10:32:35.507Z,93233.00
2022-12-16T10:35:55.516Z,93230.00
2022-12-16T10:38:57.617Z,93237.00
2022-12-16T10:41:46.913Z,93240.00
2022-12-16T10:45:13.803Z,93244.00
2022-12-16T10:47:58.948Z,93245.00
2022-12-16T10:50:44.813Z,93230.00
2022-12-16T10:53:42.017Z,93238.00
2022-12-16T10:56:48.817Z,93237.00
2022-12-16T10:59:39.518Z,93226.00
2022-12-16T11:02:33.893Z,93228.00
2022-12-16T11:05:19.650Z,93225.00
2022-12-16T11:08:04.900Z,93223.00
2022-12-16T11:11:00.123Z,93216.00
2022-12-16T11:13:52.563Z,93219.00
2022-12-16T11:16:47.211Z,93226.00
2022-12-16T11:19:41.627Z,93230.00
2022-12-16T11:22:41.052Z,93227.00
2022-12-16T11:25:38.006Z,93235.00
2022-12-16T11:28:36.838Z,93232.00
2022-12-16T11:31:34.994Z,93237.00
2022-12-16T11:34:22.865Z,93227.00
2022-12-16T11:37:16.837Z,93220.00
2022-12-16T11:40:09.007Z,93225.00
2022-12-16T11:42:55.218Z,93241.00
2022-12-16T11:45:44.781Z,93252.00
2022-12-16T11:49:03.783Z,93252.00
2022-12-16T11:51:54.440Z,93248.00
2022-12-16T11:54:52.526Z,93246.00
2022-12-16T11:58:07.578Z,93247.00
2022-12-16T12:00:59.921Z,93261.00
2022-12-16T12:03:49.172Z,93262.00
2022-12-16T12:06:51.536Z,93263.00
2022-12-16T12:09:41.132Z,93265.00
2022-12-16T12:12:46.364Z,93266.00
2022-12-16T12:15:51.576Z,93265.00
2022-12-16T12:19:01.160Z,93262.00
2022-12-16T12:22:03.121Z,93269.00
2022-12-16T12:24:57.784Z,93275.00
2022-12-16T12:27:58.750Z,93277.00
2022-12-16T12:30:44.311Z,93278.00
2022-12-16T12:33:44.688Z,93291.00
2022-12-16T12:37:23.947Z,93291.00
2022-12-16T12:40:37.364Z,93290.00
2022-12-16T12:44:09.265Z,93284.00
2022-12-16T12:47:11.396Z,93287.00
2022-12-16T12:50:20.982Z,93296.00
2022-12-16T12:53:15.129Z,93299.00
2022-12-16T12:56:12.929Z,93307.00
2022-12-16T12:59:00.377Z,93314.00
2022-12-16T13:01:50.124Z,93311.00
2022-12-16T13:04:42.103Z,93315.00
2022-12-16T13:07:28.136Z,93321.00
2022-12-16T13:10:39.664Z,93324.00
2022-12-16T13:13:34.892Z,93325.00
2022-12-16T13:16:23.459Z,93319.00
2022-12-16T13:19:47.832Z,93326.00
2022-12-16T13:22:50.267Z,93322.00
2022-12-16T13:26:03.758Z,93322.00
2022-12-16T13:28:58.958Z,93344.00
2022-12-16T13:31:47.113Z,93342.00
2022-12-16T13:34:38.446Z,93352.00
2022-12-16T13:37:31.171Z,93356.00
2022-12-16T13:40:36.372Z,93367.00
2022-12-16T13:43:23.942Z,93373.00
2022-12-16T13:46:18.694Z,93378.00
2022-12-16T13:49:04.515Z,93377.00
2022-12-16T13:51:55.780Z,93367.00
2022-12-16T13:55:07.818Z,93374.00
2022-12-16T13:58:00.082Z,93377.00
2022-12-16T14:00:47.616Z,93382.00
2022-12-16T14:04:04.446Z,93382.00
2022-12-16T14:06:51.297Z,93379.00
2022-12-16T14:09:54.982Z,93391.00
2022-12-16T14:13:26.850Z,93392.00
2022-12-16T14:16:34.277Z,93390.00
2022-12-16T14:19:34.187Z,93400.00
2022-12-16T14:22:52.018Z,93411.00
2022-12-16T14:25:44.642Z,93413.00
2022-12-16T14:28:51.804Z,93419.00
2022-12-16T14:31:55.716Z,93413.00
2022-12-16T14:34:52.281Z,93401.00
2022-12-16T14:37:53.229Z,93436.00
2022-12-16T14:40:49.868Z,93434.00
2022-12-16T14:43:40.939Z,93435.00
2022-12-16T14:46:52.288Z,93435.00
2022-12-16T14:49:49.045Z,93442.00
2022-12-16T14:52:38.063Z,93446.00
2022-12-16T14:55:31.157Z,93452.00
2022-12-16T14:58:34.834Z,93454.00
2022-12-16T15:01:42.952Z,93459.00
2022-12-16T15:04:42.175Z,93462.00
2022-12-16T15:07:33.796Z,93461.00
2022-12-16T15:10:20.713Z,93476.00
2022-12-16T15:13:08.692Z,93488.00
2022-12-16T15:16:02.154Z,93491.00
2022-12-16T15:18:57.661Z,93489.00
2022-12-16T15:21:43.132Z,93500.00
2022-12-16T15:24:43.150Z,93489.00
2022-12-16T15:27:56.494Z,93504.00
2022-12-16T15:31:01.599Z,93508.00
2022-12-16T15:33:54.515Z,93512.00
2022-12-16T15:36:55.027Z,93515.00
2022-12-16T15:39:53.362Z,93532.00
2022-12-16T15:42:47.284Z,93535.00
2022-12-16T15:45:48.399Z,93537.00
2022-12-16T15:48:36.647Z,93542.00
2022-12-16T15:51:42.064Z,93532.00
2022-12-16T15:54:41.596Z,93552.00
2022-12-16T15:57:50.954Z,93559.00
2022-12-16T16:00:50.422Z,93558.00
2022-12-16T16:03:48.677Z,93564.00
2022-12-16T16:06:38.124Z,93559.00
2022-12-16T16:09:41.052Z,93561.00
2022-12-16T16:12:37.608Z,93561.00
2022-12-16T16:15:26.375Z,93579.00
2022-12-16T16:18:28.321Z,93581.00
2022-12-16T16:21:13.700Z,93584.00
2022-12-16T16:23:59.116Z,93586.00
2022-12-16T16:26:46.277Z,93592.00
2022-12-16T16:29:32.277Z,93595.00
2022-12-16T16:32:20.332Z,93599.00
2022-12-16T16:35:05.689Z,93596.00
2022-12-16T16:37:51.244Z,93616.00
2022-12-16T16:40:45.528Z,93608.00
2022-12-16T16:43:31.178Z,93606.00
2022-12-16T16:46:17.065Z,93619.00
2022-12-16T16:49:02.313Z,93630.00
2022-12-16T16:51:47.775Z,93625.00
2022-12-16T16:54:33.391Z,93628.00
2022-12-16T16:57:24.627Z,93629.00
2022-12-16T17:00:12.197Z,93622.00
2022-12-16T17:03:00.288Z,93637.00
2022-12-16T17:05:45.824Z,93646.00
2022-12-16T17:08:33.800Z,93647.00
2022-12-16T17:11:19.197Z,93660.00
2022-12-16T17:14:04.752Z,93665.00
2022-12-16T17:16:50.080Z,93671.00
2022-12-16T17:19:37.549Z,93675.00
2022-12-16T17:22:23.189Z,93684.00
2022-12-16T17:25:08.206Z,93686.00
2022-12-16T17:27:53.880Z,93699.00
2022-12-16T17:30:46.882Z,93689.00
2022-12-16T17:33:36.796Z,93688.00
2022-12-16T17:36:25.093Z,93699.00
2022-12-16T17:39:16.352Z,93705.00
2022-12-16T17:42:01.828Z,93700.00
2022-12-16T17:44:47.376Z,93714.00
2022-12-16T17:47:34.476Z,93712.00
2022-12-16T17:50:20.512Z,93715.00
2022-12-16T17:53:05.769Z,93719.00
2022-12-16T17:55:54.806Z,93716.00
2022-12-16T17:58:48.262Z,93719.00
2022-12-16T18:01:33.678Z,93734.00
2022-12-16T18:04:21.423Z,93721.00
2022-12-16T18:07:06.869Z,93741.00
2022-12-16T18:09:53.208Z,93750.00
2022-12-16T18:12:40.087Z,93751.00
2022-12-16T18:15:28.463Z,93751.00
2022-12-16T18:18:16.402Z,93756.00
2022-12-16T18:21:04.085Z,93760.00
2022-12-16T18:23:50.024Z,93746.00
2022-12-16T18:26:35.868Z,93755.00
2022-12-16T18:29:23.230Z,93760.00
2022-12-16T18:32:10.833Z,93760.00
2022-12-16T18:34:56.197Z,93758.00
2022-12-16T18:37:42.278Z,93758.00
2022-12-16T18:40:28.709Z,93754.00
2022-12-16T18:43:14.124Z,93764.00
2022-12-16T18:46:04.137Z,93764.00
2022-12-16T18:48:49.511Z,93771.00
2022-12-16T18:51:35.257Z,93769.00
2022-12-16T18:54:20.642Z,93772.00
2022-12-16T18:57:08.646Z,93786.00
2022-12-16T18:59:53.906Z,93789.00
2022-12-16T19:02:44.035Z,93789.00
2022-12-16T19:05:29.549Z,93804.00
2022-12-16T19:08:14.951Z,93805.00
2022-12-16T19:11:02.979Z,93805.00
2022-12-16T19:13:48.305Z,93814.00
2022-12-16T19:16:33.537Z,93816.00
2022-12-16T19:19:20.453Z,93813.00
2022-12-16T19:22:06.868Z,93818.00
2022-12-16T19:24:57.106Z,93804.00
2022-12-16T19:27:44.913Z,93811.00
2022-12-16T19:30:30.648Z,93819.00
2022-12-16T19:33:15.990Z,93828.00
2022-12-16T19:36:01.162Z,93832.00
2022-12-16T19:38:49.165Z,93849.00
2022-12-16T19:41:36.597Z,93853.00
2022-12-16T19:44:25.466Z,93856.00
2022-12-16T19:47:10.737Z,93851.00
2022-12-16T19:50:00.628Z,93858.00
2022-12-16T19:52:46.115Z,93861.00
2022-12-16T19:55:34.290Z,93860.00
2022-12-16T19:58:22.540Z,93868.00
2022-12-16T20:01:07.967Z,93880.00
2022-12-16T20:03:56.564Z,93875.00
2022-12-16T20:06:42.184Z,93879.00
2022-12-16T20:09:27.992Z,93888.00
2022-12-16T20:12:15.141Z,93878.00
2022-12-16T20:15:00.511Z,93891.00
2022-12-16T20:17:48.108Z,93876.00
2022-12-16T20:20:33.810Z,93880.00
2022-12-16T20:23:22.714Z,93878.00
2022-12-16T20:26:16.495Z,93893.00
2022-12-16T20:29:02.816Z,93902.00
2022-12-16T20:31:50.956Z,93899.00
2022-12-16T20:34:39.343Z,93906.00
2022-12-16T20:37:25.084Z,93907.00
2022-12-16T20:40:10.482Z,93906.00
2022-12-16T20:42:56.404Z,93911.00
2022-12-16T20:45:42.029Z,93914.00
2022-12-16T20:48:32.267Z,93911.00
2022-12-16T20:51:26.225Z,93924.00
2022-12-16T20:54:13.145Z,93927.00
2022-12-16T20:57:01.915Z,93915.00
2022-12-16T20:59:49.825Z,93921.00
2022-12-16T21:02:37.514Z,93921.00
2022-12-16T21:05:23.384Z,93939.00
2022-12-16T21:08:09.436Z,93941.00
2022-12-16T21:14:00.293Z,93952.00
2022-12-16T21:16:50.908Z,93949.00
2022-12-16T21:19:37.103Z,93957.00
2022-12-16T21:22:24.623Z,93957.00
2022-12-16T21:25:10.298Z,93962.00
2022-12-16T21:27:55.531Z,93969.00
2022-12-16T21:30:41.137Z,93969.00
2022-12-16T21:33:38.501Z,93975.00
2022-12-16T21:36:24.853Z,93974.00
2022-12-16T21:39:10.135Z,93977.00
2022-12-16T21:41:55.297Z,93986.00
2022-12-16T21:44:41.679Z,93982.00
2022-12-16T21:47:26.979Z,93994.00
2022-12-16T21:50:12.333Z,94005.00
2022-12-16T21:52:57.481Z,94009.00
2022-12-16T21:55:42.680Z,94010.00
2022-12-16T21:58:31.421Z,94013.00
2022-12-16T22:01:17.836Z,94015.00
2022-12-16T22:04:05.532Z,94021.00
2022-12-16T22:06:51.096Z,94043.00
2022-12-16T22:09:37.713Z,94042.00
2022-12-16T22:12:23.494Z,94048.00
2022-12-16T22:15:08.643Z,94046.00
2022-12-16T22:17:58.609Z,94053.00
2022-12-16T22:21:00.803Z,94050.00
2022-12-16T22:23:48.469Z,94062.00
2022-12-16T22:26:38.806Z,94071.00
2022-12-16T22:29:24.560Z,94069.00
2022-12-16T22:32:10.134Z,94066.00
2022-12-16T22:34:58.116Z,94077.00
2022-12-16T22:36:21.751Z,93952.00
2022-12-16T22:37:45.938Z,94080.00
2022-12-16T22:40:31.558Z,94074.00
2022-12-16T22:43:19.824Z,94092.00
2022-12-16T22:46:05.424Z,94052.00
2022-12-16T22:48:53.159Z,94080.00
2022-12-16T22:51:41.572Z,94073.00
2022-12-16T22:54:26.881Z,94098.00
2022-12-16T22:57:12.171Z,94084.00
2022-12-16T22:59:57.802Z,94083.00
2022-12-16T23:02:45.635Z,94092.00
2022-12-16T23:05:31.324Z,94080.00
2022-12-16T23:08:16.710Z,94081.00
2022-12-16T23:11:02.236Z,94086.00
2022-12-16T23:13:47.707Z,94084.00
2022-12-16T23:16:33.107Z,94084.00
2022-12-16T23:19:20.984Z,94087.00
2022-12-16T23:22:09.517Z,94085.00
2022-12-16T23:24:54.931Z,94099.00
2022-12-16T23:27:42.317Z,94098.00
2022-12-16T23:30:32.360Z,94101.00
2022-12-16T23:33:32.976Z,94099.00
2022-12-16T23:36:18.902Z,94088.00
2022-12-16T23:39:06.374Z,94102.00
2022-12-16T23:41:52.231Z,94098.00
2022-12-16T23:44:40.157Z,94103.00
2022-12-16T23:47:30.221Z,94104.00
2022-12-16T23:50:18.005Z,94085.00
2022-12-16T23:53:24.925Z,94107.00
2022-12-16T23:56:14.871Z,94114.00
2022-12-16T23:59:00.410Z,94126.00
